createdAt,value
2018-10-02T00:00:07.528Z,1.00
2018-10-02T00:02:34.910Z,1.10
2018-10-02T00:05:02.277Z,0.90
2018-10-02T00:07:29.395Z,1.40
2018-10-02T00:09:56.899Z,1.47
2018-10-02T00:12:29.459Z,1.15
2018-10-02T00:14:56.624Z,2.72
2018-10-02T00:17:23.732Z,1.55
2018-10-02T00:19:50.850Z,1.10
2018-10-02T00:22:17.972Z,1.55
2018-10-02T00:24:45.100Z,1.17
2018-10-02T00:27:12.269Z,1.22
2018-10-02T00:29:39.535Z,0.90
2018-10-02T00:32:06.750Z,1.60
2018-10-02T00:34:33.748Z,1.00
2018-10-02T00:37:01.265Z,1.10
2018-10-02T00:39:28.476Z,0.70
2018-10-02T00:41:55.910Z,1.60
2018-10-02T00:44:23.017Z,1.35
2018-10-02T00:46:50.181Z,1.40
2018-10-02T00:49:17.325Z,1.10
2018-10-02T00:51:44.434Z,1.10
2018-10-02T00:54:11.523Z,1.55
2018-10-02T00:56:38.740Z,1.35
2018-10-02T00:59:05.913Z,1.20
2018-10-02T01:01:33.098Z,1.40
2018-10-02T01:04:00.263Z,1.20
2018-10-02T01:06:27.411Z,1.10
2018-10-02T01:08:54.550Z,0.90
2018-10-02T01:11:21.648Z,1.30
2018-10-02T01:13:48.813Z,1.00
2018-10-02T01:16:15.932Z,1.20
2018-10-02T01:18:43.141Z,1.40
2018-10-02T01:21:10.263Z,1.40
2018-10-02T01:23:37.412Z,1.42
2018-10-02T01:26:04.600Z,1.67
2018-10-02T01:28:32.067Z,1.92
2018-10-02T01:30:59.179Z,1.00
2018-10-02T01:33:26.593Z,1.30
2018-10-02T01:35:53.780Z,1.92
2018-10-02T01:38:20.949Z,1.00
2018-10-02T01:40:48.129Z,1.12
2018-10-02T01:43:15.554Z,1.30
2018-10-02T01:45:42.726Z,0.90
2018-10-02T01:48:10.073Z,1.42
2018-10-02T01:50:37.204Z,2.40
2018-10-02T01:53:04.545Z,2.58
2018-10-02T01:55:31.663Z,1.27
2018-10-02T01:57:58.807Z,1.80
2018-10-02T02:00:26.048Z,1.45
2018-10-02T02:02:53.163Z,1.00
2018-10-02T02:05:20.521Z,1.05
2018-10-02T02:07:47.936Z,1.75
2018-10-02T02:10:15.183Z,1.07
2018-10-02T02:12:42.312Z,1.50
2018-10-02T02:15:09.467Z,1.12
2018-10-02T02:17:36.598Z,1.32
2018-10-02T02:20:03.859Z,1.42
2018-10-02T02:22:30.984Z,1.05
2018-10-02T02:24:58.159Z,1.62
2018-10-02T02:27:26.427Z,1.40
2018-10-02T02:29:53.647Z,1.50
2018-10-02T02:32:20.842Z,1.20
2018-10-02T02:34:47.925Z,1.37
2018-10-02T02:37:15.180Z,1.00
2018-10-02T02:39:42.416Z,1.17
2018-10-02T02:42:09.559Z,1.57
2018-10-02T02:44:36.641Z,1.22
2018-10-02T02:47:09.764Z,1.45
2018-10-02T02:49:42.506Z,1.20
2018-10-02T02:52:10.498Z,0.98
2018-10-02T02:54:37.614Z,1.60
2018-10-02T02:57:05.027Z,2.02
2018-10-02T02:59:32.237Z,1.22
2018-10-02T03:01:59.452Z,1.00
2018-10-02T03:04:26.580Z,0.95
2018-10-02T03:06:53.751Z,1.10
2018-10-02T03:09:20.942Z,1.20
2018-10-02T03:11:48.063Z,1.00
2018-10-02T03:14:15.216Z,1.15
2018-10-02T03:16:42.348Z,1.35
2018-10-02T03:19:09.525Z,1.30
2018-10-02T03:21:37.010Z,1.17
2018-10-02T03:24:04.190Z,1.05
2018-10-02T03:26:31.436Z,1.10
2018-10-02T03:28:58.662Z,1.37
2018-10-02T03:31:26.577Z,2.05
2018-10-02T03:33:54.086Z,1.27
2018-10-02T03:36:21.242Z,1.37
2018-10-02T03:38:48.433Z,1.22
2018-10-02T03:41:15.555Z,1.40
2018-10-02T03:43:43.773Z,1.12
2018-10-02T03:46:10.902Z,1.27
2018-10-02T03:48:38.122Z,1.40
2018-10-02T03:51:05.234Z,1.00
2018-10-02T03:53:32.618Z,1.67
2018-10-02T03:56:00.129Z,1.17
2018-10-02T03:58:27.270Z,1.10
2018-10-02T04:00:54.422Z,1.07
2018-10-02T04:03:21.750Z,1.40
2018-10-02T04:05:48.888Z,1.20
2018-10-02T04:08:16.395Z,2.77
2018-10-02T04:10:43.789Z,1.75
2018-10-02T04:13:11.020Z,1.00
2018-10-02T04:15:39.041Z,1.32
2018-10-02T04:18:06.449Z,1.80
2018-10-02T04:20:33.684Z,1.00
2018-10-02T04:23:00.896Z,0.80
2018-10-02T04:25:28.408Z,1.10
2018-10-02T04:27:55.843Z,1.00
2018-10-02T04:30:22.980Z,1.67
2018-10-02T04:32:50.567Z,1.05
2018-10-02T04:35:18.071Z,1.20
2018-10-02T04:37:45.171Z,1.00
2018-10-02T04:40:12.743Z,1.30
2018-10-02T04:42:39.889Z,1.35
2018-10-02T04:45:07.346Z,1.00
2018-10-02T04:47:35.233Z,1.20
2018-10-02T04:50:02.453Z,1.60
2018-10-02T04:52:29.625Z,1.52
2018-10-02T04:54:56.829Z,1.40
2018-10-02T04:57:24.240Z,1.50
2018-10-02T04:59:51.405Z,1.02
2018-10-02T05:02:19.176Z,1.67
2018-10-02T05:04:46.260Z,1.30
2018-10-02T05:07:16.178Z,1.25
2018-10-02T05:09:43.602Z,1.20
2018-10-02T05:12:10.745Z,2.00
2018-10-02T05:14:38.617Z,1.70
2018-10-02T05:17:07.949Z,1.32
2018-10-02T05:19:35.441Z,1.75
2018-10-02T05:22:03.147Z,2.55
2018-10-02T05:24:30.608Z,4.00
2018-10-02T05:26:57.763Z,1.30
2018-10-02T05:29:27.214Z,1.42
2018-10-02T05:31:54.641Z,1.50
2018-10-02T05:34:21.738Z,2.37
2018-10-02T05:36:48.912Z,1.80
2018-10-02T05:39:16.122Z,1.60
2018-10-02T05:41:43.401Z,1.50
2018-10-02T05:44:10.788Z,1.80
2018-10-02T05:46:37.928Z,1.55
2018-10-02T05:49:05.143Z,1.50
2018-10-02T05:51:32.545Z,1.45
2018-10-02T05:54:01.985Z,1.32
2018-10-02T05:56:29.146Z,1.50
2018-10-02T05:58:57.043Z,1.25
2018-10-02T06:01:27.868Z,1.60
2018-10-02T06:03:57.439Z,1.50
2018-10-02T06:06:25.215Z,1.02
2018-10-02T06:08:52.698Z,1.32
2018-10-02T06:11:21.090Z,1.95
2018-10-02T06:13:48.612Z,0.95
2018-10-02T06:16:16.046Z,1.02
2018-10-02T06:18:43.280Z,1.22
2018-10-02T06:21:10.520Z,1.37
2018-10-02T06:26:11.542Z,1.00
2018-10-02T06:28:38.772Z,1.20
2018-10-02T06:31:06.373Z,0.90
2018-10-02T06:33:35.790Z,1.10
2018-10-02T06:36:03.382Z,1.17
2018-10-02T06:38:31.272Z,1.10
2018-10-02T06:40:58.365Z,0.90
2018-10-02T06:43:26.156Z,1.62
2018-10-02T06:45:54.173Z,1.10
2018-10-02T06:50:53.557Z,0.90
2018-10-02T06:53:21.899Z,1.00
2018-10-02T06:55:49.034Z,1.82
2018-10-02T06:58:16.161Z,1.00
2018-10-02T07:00:43.636Z,1.37
2018-10-02T07:03:10.767Z,1.17
2018-10-02T07:05:38.160Z,0.80
2018-10-02T07:08:05.561Z,1.10
2018-10-02T07:10:33.519Z,0.90
2018-10-02T07:13:00.908Z,0.90
2018-10-02T07:15:29.415Z,1.40
2018-10-02T07:17:56.565Z,1.40
2018-10-02T07:20:25.331Z,1.00
2018-10-02T07:22:52.684Z,1.17
2018-10-02T07:25:19.925Z,1.02
2018-10-02T07:30:20.680Z,1.20
2018-10-02T07:32:50.700Z,1.25
2018-10-02T07:35:18.279Z,1.40
2018-10-02T07:37:47.577Z,0.75
2018-10-02T07:40:14.862Z,2.55
2018-10-02T07:42:45.313Z,1.00
2018-10-02T07:45:13.052Z,1.52
2018-10-02T07:50:20.693Z,1.27
2018-10-02T07:55:40.320Z,1.05
2018-10-02T07:58:07.468Z,1.20
2018-10-02T08:00:35.295Z,1.20
2018-10-02T08:03:02.516Z,1.60
2018-10-02T08:05:31.410Z,1.10
2018-10-02T08:07:58.833Z,1.75
2018-10-02T08:10:26.039Z,0.80
2018-10-02T08:12:53.257Z,1.05
2018-10-02T08:15:20.646Z,0.90
2018-10-02T08:18:02.421Z,1.82
2018-10-02T08:20:30.543Z,1.30
2018-10-02T08:23:00.240Z,1.30
2018-10-02T08:25:27.980Z,1.52
2018-10-02T08:28:02.349Z,1.37
2018-10-02T08:30:29.682Z,1.00
2018-10-02T08:32:56.826Z,1.12
2018-10-02T08:35:24.251Z,1.00
2018-10-02T08:37:52.536Z,1.05
2018-10-02T08:40:19.826Z,1.00
2018-10-02T08:42:47.373Z,1.15
2018-10-02T08:45:15.465Z,1.30
2018-10-02T08:47:42.580Z,3.10
2018-10-02T08:50:10.110Z,0.90
2018-10-02T08:52:37.261Z,1.00
2018-10-02T08:55:04.621Z,0.80
2018-10-02T08:57:31.746Z,1.52
2018-10-02T08:59:59.166Z,0.80
2018-10-02T09:02:26.364Z,1.42
2018-10-02T09:04:53.879Z,1.10
2018-10-02T09:07:21.023Z,1.40
2018-10-02T09:09:48.842Z,1.07
2018-10-02T09:12:16.705Z,1.45
2018-10-02T09:14:44.114Z,1.20
2018-10-02T09:17:11.263Z,1.20
2018-10-02T09:19:38.505Z,1.00
2018-10-02T09:22:05.708Z,0.80
2018-10-02T09:24:32.895Z,1.00
2018-10-02T09:26:59.997Z,0.93
2018-10-02T09:29:27.210Z,1.22
2018-10-02T09:31:59.774Z,0.98
2018-10-02T09:34:33.032Z,1.10
2018-10-02T09:37:05.768Z,0.90
2018-10-02T09:39:38.395Z,1.37
2018-10-02T09:42:11.354Z,1.00
2018-10-02T09:44:39.328Z,1.17
2018-10-02T09:47:06.782Z,1.00
2018-10-02T09:49:33.998Z,0.80
2018-10-02T09:52:02.129Z,1.45
2018-10-02T09:54:29.881Z,1.00
2018-10-02T09:56:57.041Z,1.12
2018-10-02T10:02:09.658Z,1.02
2018-10-02T10:04:37.207Z,1.75
2018-10-02T10:07:04.697Z,1.00
2018-10-02T10:09:32.481Z,1.25
2018-10-02T10:11:59.886Z,2.25
2018-10-02T10:14:27.532Z,2.20
2018-10-02T10:16:55.572Z,1.07
2018-10-02T10:19:23.101Z,0.93
2018-10-02T10:21:50.517Z,1.10
2018-10-02T10:24:17.704Z,1.45
2018-10-02T10:26:45.239Z,1.55
2018-10-02T10:29:12.851Z,1.02
2018-10-02T10:31:40.331Z,1.57
2018-10-02T10:34:07.691Z,1.20
2018-10-02T10:36:35.252Z,1.00
2018-10-02T10:39:03.234Z,1.70
2018-10-02T10:41:31.698Z,3.40
2018-10-02T10:43:59.251Z,1.42
2018-10-02T10:46:27.460Z,1.72
2018-10-02T10:51:28.484Z,2.00
2018-10-02T10:56:38.074Z,0.98
2018-10-02T10:59:13.002Z,1.22
2018-10-02T11:01:42.866Z,1.00
2018-10-02T11:04:11.372Z,4.00
2018-10-02T11:06:40.376Z,2.00
2018-10-02T11:09:11.608Z,1.92
2018-10-02T11:11:39.774Z,1.45
2018-10-02T11:14:08.674Z,1.87
2018-10-02T11:16:36.645Z,1.40
2018-10-02T11:19:04.712Z,1.35
2018-10-02T11:21:33.914Z,1.72
2018-10-02T11:24:01.184Z,1.10
2018-10-02T11:29:02.412Z,1.20
2018-10-02T11:31:40.689Z,1.40
2018-10-02T11:36:46.810Z,1.92
2018-10-02T11:39:14.193Z,1.42
2018-10-02T11:41:41.717Z,1.60
2018-10-02T11:44:09.759Z,1.40
2018-10-02T11:46:38.161Z,1.67
2018-10-02T11:49:07.306Z,1.87
2018-10-02T11:51:34.932Z,1.10
2018-10-02T11:54:02.072Z,1.42
2018-10-02T11:56:30.960Z,1.00
2018-10-02T11:58:58.271Z,1.35
2018-10-02T12:01:25.532Z,1.50
2018-10-02T12:03:52.765Z,1.75
2018-10-02T12:06:20.256Z,1.50
2018-10-02T12:08:47.618Z,1.40
2018-10-02T12:11:15.747Z,1.30
2018-10-02T12:13:42.971Z,1.42
2018-10-02T12:16:10.488Z,1.50
2018-10-02T12:18:37.949Z,1.72
2018-10-02T12:21:05.901Z,1.37
2018-10-02T12:23:33.040Z,0.90
2018-10-02T12:26:00.435Z,1.30
2018-10-02T12:28:27.696Z,1.40
2018-10-02T12:30:54.858Z,1.72
2018-10-02T12:33:22.334Z,2.00
2018-10-02T12:35:49.729Z,2.17
2018-10-02T12:38:18.027Z,1.50
2018-10-02T12:40:45.159Z,1.20
2018-10-02T12:43:12.693Z,1.20
2018-10-02T12:45:39.771Z,1.55
2018-10-02T12:48:06.928Z,1.10
2018-10-02T12:50:35.225Z,1.20
2018-10-02T12:53:03.099Z,1.20
2018-10-02T12:55:30.505Z,1.37
2018-10-02T12:57:58.336Z,1.77
2018-10-02T13:00:25.521Z,1.17
2018-10-02T13:02:52.640Z,1.60
2018-10-02T13:05:19.783Z,1.40
2018-10-02T13:07:46.928Z,1.22
2018-10-02T13:10:14.665Z,1.62
2018-10-02T13:12:41.750Z,1.62
2018-10-02T13:15:09.208Z,1.52
2018-10-02T13:17:37.250Z,1.80
2018-10-02T13:20:04.490Z,1.20
2018-10-02T13:22:31.795Z,1.22
2018-10-02T13:24:58.903Z,1.30
2018-10-02T13:27:26.009Z,1.00
2018-10-02T13:29:53.166Z,1.20
2018-10-02T13:32:20.390Z,1.37
2018-10-02T13:34:47.576Z,1.00
2018-10-02T13:37:15.710Z,1.25
2018-10-02T13:39:42.927Z,0.80
2018-10-02T13:42:10.064Z,1.10
2018-10-02T13:44:37.294Z,1.50
2018-10-02T13:47:04.390Z,1.07
2018-10-02T13:49:32.082Z,1.90
2018-10-02T13:51:59.398Z,1.55
2018-10-02T13:54:26.890Z,1.20
2018-10-02T13:56:54.417Z,1.07
2018-10-02T13:59:21.684Z,1.20
2018-10-02T14:01:48.978Z,2.35
2018-10-02T14:04:16.288Z,2.08
2018-10-02T14:06:50.352Z,1.22
2018-10-02T14:09:17.505Z,1.40
2018-10-02T14:11:44.995Z,1.00
2018-10-02T14:14:13.963Z,1.10
2018-10-02T14:16:42.050Z,1.85
2018-10-02T14:19:09.476Z,1.27
2018-10-02T14:21:36.631Z,1.00
2018-10-02T14:24:03.770Z,1.62
2018-10-02T14:26:30.869Z,1.20
2018-10-02T14:28:58.159Z,1.27
2018-10-02T14:31:25.357Z,1.37
2018-10-02T14:33:52.722Z,1.67
2018-10-02T14:36:19.850Z,1.75
2018-10-02T14:38:47.041Z,1.62
2018-10-02T14:41:14.467Z,0.90
2018-10-02T14:43:42.884Z,1.52
2018-10-02T14:46:10.115Z,1.77
2018-10-02T14:48:37.320Z,1.92
2018-10-02T14:51:04.831Z,1.42
2018-10-02T14:53:32.017Z,0.80
2018-10-02T14:56:00.139Z,1.70
2018-10-02T14:58:27.807Z,1.30
2018-10-02T15:00:54.949Z,1.25
2018-10-02T15:03:22.141Z,1.00
2018-10-02T15:05:49.303Z,1.80
2018-10-02T15:08:17.006Z,1.10
2018-10-02T15:10:44.195Z,2.42
2018-10-02T15:13:11.952Z,1.60
2018-10-02T15:15:39.479Z,1.62
2018-10-02T15:18:06.639Z,2.02
2018-10-02T15:20:36.245Z,1.75
2018-10-02T15:23:03.422Z,1.42
2018-10-02T15:25:30.639Z,1.37
2018-10-02T15:27:58.075Z,1.75
2018-10-02T15:30:26.253Z,1.65
2018-10-02T15:32:53.457Z,2.00
2018-10-02T15:35:20.569Z,1.70
2018-10-02T15:37:47.781Z,2.58
2018-10-02T15:40:14.876Z,2.17
2018-10-02T15:42:42.012Z,2.10
2018-10-02T15:45:09.166Z,1.55
2018-10-02T15:47:37.762Z,1.85
2018-10-02T15:50:04.936Z,1.72
2018-10-02T15:52:33.036Z,2.00
2018-10-02T15:55:00.125Z,1.45
2018-10-02T15:57:28.144Z,1.80
2018-10-02T15:59:55.244Z,1.27
2018-10-02T16:02:23.743Z,1.85
2018-10-02T16:04:50.880Z,3.47
2018-10-02T16:07:18.050Z,2.12
2018-10-02T16:09:45.201Z,1.82
2018-10-02T16:12:12.312Z,2.22
2018-10-02T16:14:39.443Z,1.70
2018-10-02T16:17:06.580Z,1.52
2018-10-02T16:19:33.808Z,2.42
2018-10-02T16:22:01.305Z,1.60
2018-10-02T16:24:28.425Z,2.02
2018-10-02T16:26:55.889Z,1.50
2018-10-02T16:29:23.510Z,2.33
2018-10-02T16:31:50.701Z,2.70
2018-10-02T16:34:17.966Z,2.33
2018-10-02T16:36:45.310Z,1.70
2018-10-02T16:39:12.790Z,2.00
2018-10-02T16:41:40.191Z,1.40
2018-10-02T16:44:07.391Z,2.00
2018-10-02T16:46:34.511Z,2.17
2018-10-02T16:49:01.852Z,1.75
2018-10-02T16:51:28.970Z,2.33
2018-10-02T16:53:56.103Z,2.12
2018-10-02T16:56:23.531Z,2.40
2018-10-02T16:58:51.283Z,2.77
2018-10-02T17:01:19.142Z,1.57
2018-10-02T17:03:46.249Z,2.27
2018-10-02T17:06:14.013Z,3.10
2018-10-02T17:08:41.172Z,2.83
2018-10-02T17:11:08.353Z,2.10
2018-10-02T17:13:35.541Z,2.08
2018-10-02T17:16:02.661Z,2.75
2018-10-02T17:18:29.900Z,3.77
2018-10-02T17:20:57.007Z,2.92
2018-10-02T17:23:24.216Z,3.77
2018-10-02T17:25:51.339Z,5.75
2018-10-02T17:28:18.648Z,4.75
2018-10-02T17:30:50.355Z,4.20
2018-10-02T17:33:18.156Z,4.08
2018-10-02T17:35:46.265Z,4.78
2018-10-02T17:38:13.446Z,3.83
2018-10-02T17:40:41.131Z,3.87
2018-10-02T17:43:08.349Z,3.15
2018-10-02T17:45:35.521Z,4.20
2018-10-02T17:48:02.631Z,3.37
2018-10-02T17:50:29.837Z,4.35
2018-10-02T17:52:57.000Z,4.10
2018-10-02T17:55:24.402Z,4.40
2018-10-02T17:57:51.527Z,3.10
2018-10-02T18:00:19.719Z,3.02
2018-10-02T18:02:48.865Z,3.80
2018-10-02T18:05:17.024Z,3.08
2018-10-02T18:07:45.059Z,3.90
2018-10-02T18:10:13.885Z,3.70
2018-10-02T18:12:42.809Z,3.42
2018-10-02T18:15:11.212Z,4.10
2018-10-02T18:17:38.955Z,2.75
2018-10-02T18:20:07.208Z,3.05
2018-10-02T18:22:35.377Z,2.05
2018-10-02T18:25:05.642Z,3.10
2018-10-02T18:27:32.910Z,3.30
2018-10-02T18:30:00.372Z,3.87
2018-10-02T18:32:27.727Z,4.05
2018-10-02T18:34:55.616Z,4.92
2018-10-02T18:37:25.302Z,3.08
2018-10-02T18:40:09.544Z,3.62
2018-10-02T18:42:39.892Z,3.50
2018-10-02T18:45:09.662Z,2.95
2018-10-02T18:47:37.526Z,3.83
2018-10-02T18:50:05.055Z,2.60
2018-10-02T18:52:33.178Z,3.25
2018-10-02T18:55:02.188Z,3.20
2018-10-02T18:57:31.481Z,2.12
2018-10-02T18:59:59.843Z,2.67
2018-10-02T19:02:27.068Z,3.22
2018-10-02T19:04:54.436Z,3.40
2018-10-02T19:07:22.193Z,2.75
2018-10-02T19:09:49.453Z,2.30
2018-10-02T19:12:18.288Z,3.05
2018-10-02T19:14:45.990Z,3.27
2018-10-02T19:17:13.614Z,2.83
2018-10-02T19:19:47.985Z,2.75
2018-10-02T19:22:16.981Z,2.83
2018-10-02T19:24:45.065Z,2.62
2018-10-02T19:27:13.381Z,2.95
2018-10-02T19:29:40.877Z,3.55
2018-10-02T19:32:11.295Z,3.70
2018-10-02T19:34:38.459Z,3.02
2018-10-02T19:37:11.198Z,2.83
2018-10-02T19:39:38.475Z,2.33
2018-10-02T19:42:06.415Z,3.52
2018-10-02T19:44:33.897Z,2.98
2018-10-02T19:47:01.865Z,3.92
2018-10-02T19:49:30.958Z,3.30
2018-10-02T19:52:17.425Z,2.15
2018-10-02T19:54:45.310Z,4.08
2018-10-02T19:57:14.951Z,2.62
2018-10-02T19:59:43.008Z,2.02
2018-10-02T20:02:11.849Z,4.37
2018-10-02T20:04:39.078Z,2.92
2018-10-02T20:07:07.815Z,2.40
2018-10-02T20:09:34.977Z,2.50
2018-10-02T20:12:02.703Z,2.60
2018-10-02T20:14:29.873Z,2.60
2018-10-02T20:16:57.232Z,4.42
2018-10-02T20:19:24.462Z,2.10
2018-10-02T20:21:51.942Z,2.27
2018-10-02T20:24:19.020Z,1.95
2018-10-02T20:26:46.205Z,2.10
2018-10-02T20:29:13.861Z,2.80
2018-10-02T20:31:43.637Z,2.45
2018-10-02T20:34:10.837Z,2.50
2018-10-02T20:36:38.129Z,3.15
2018-10-02T20:39:06.163Z,3.05
2018-10-02T20:41:33.535Z,2.45
2018-10-02T20:44:00.754Z,2.85
2018-10-02T20:46:27.931Z,2.67
2018-10-02T20:48:55.168Z,1.92
2018-10-02T20:51:22.865Z,2.40
2018-10-02T20:53:50.414Z,1.85
2018-10-02T20:56:17.558Z,5.55
2018-10-02T20:58:44.833Z,2.85
2018-10-02T21:01:12.053Z,2.17
2018-10-02T21:03:39.165Z,2.65
2018-10-02T21:06:06.554Z,2.47
2018-10-02T21:08:33.744Z,3.30
2018-10-02T21:11:00.901Z,2.62
2018-10-02T21:13:28.046Z,2.45
2018-10-02T21:15:55.188Z,3.05
2018-10-02T21:18:28.910Z,2.27
2018-10-02T21:20:56.511Z,4.35
2018-10-02T21:23:24.262Z,3.05
2018-10-02T21:25:51.735Z,3.50
2018-10-02T21:28:18.854Z,2.60
2018-10-02T21:30:45.976Z,2.80
2018-10-02T21:33:13.155Z,3.20
2018-10-02T21:35:40.755Z,2.65
2018-10-02T21:38:07.941Z,2.08
2018-10-02T21:40:35.079Z,1.25
2018-10-02T21:43:02.266Z,2.05
2018-10-02T21:45:29.495Z,2.17
2018-10-02T21:47:56.653Z,3.10
2018-10-02T21:50:23.828Z,3.17
2018-10-02T21:52:50.991Z,2.33
2018-10-02T21:55:18.110Z,3.02
2018-10-02T21:57:45.330Z,2.90
2018-10-02T22:00:12.630Z,3.10
2018-10-02T22:02:39.860Z,2.90
2018-10-02T22:05:07.036Z,2.55
2018-10-02T22:07:35.025Z,2.35
2018-10-02T22:10:02.492Z,2.95
2018-10-02T22:12:29.751Z,3.37
2018-10-02T22:14:56.920Z,3.47
2018-10-02T22:17:29.427Z,2.95
2018-10-02T22:19:56.696Z,2.05
2018-10-02T22:22:23.915Z,2.30
2018-10-02T22:24:51.109Z,1.90
2018-10-02T22:27:18.255Z,2.05
2018-10-02T22:29:45.442Z,1.57
2018-10-02T22:32:12.597Z,1.98
2018-10-02T22:34:39.705Z,3.33
2018-10-02T22:37:06.924Z,2.50
2018-10-02T22:39:34.177Z,3.30
2018-10-02T22:42:01.267Z,4.03
2018-10-02T22:44:28.428Z,2.65
2018-10-02T22:46:56.614Z,2.52
2018-10-02T22:49:23.730Z,2.62
2018-10-02T22:51:50.854Z,3.12
2018-10-02T22:54:17.916Z,3.05
2018-10-02T22:56:45.137Z,3.20
2018-10-02T22:59:12.813Z,3.40
2018-10-02T23:01:40.049Z,2.87
2018-10-02T23:04:07.712Z,3.77
2018-10-02T23:06:34.832Z,3.05
2018-10-02T23:09:02.034Z,2.45
2018-10-02T23:11:29.175Z,2.98
2018-10-02T23:13:56.300Z,3.50
2018-10-02T23:16:23.475Z,3.27
2018-10-02T23:18:50.671Z,3.65
2018-10-02T23:21:17.796Z,4.03
2018-10-02T23:23:45.085Z,2.72
2018-10-02T23:26:12.270Z,2.65
2018-10-02T23:28:39.536Z,2.60
2018-10-02T23:31:07.283Z,3.40
2018-10-02T23:33:34.949Z,1.95
2018-10-02T23:36:02.129Z,1.92
2018-10-02T23:38:29.372Z,2.70
2018-10-02T23:40:56.565Z,2.55
2018-10-02T23:43:23.738Z,2.25
2018-10-02T23:45:50.906Z,2.30
2018-10-02T23:48:18.067Z,3.05
2018-10-02T23:50:45.259Z,2.20
2018-10-02T23:53:12.450Z,4.62
2018-10-02T23:55:39.685Z,3.83
2018-10-02T23:58:07.259Z,3.17
